sensor_id;sensor_type;location;lat;lon;timestamp;pressure;altitude;pressure_sealevel;temperature;humidity
3102;BME280;1561;42.666;23.392;2023-03-15T00:02:18;94099.00;;;5.59;56.92
3102;BME280;1561;42.666;23.392;2023-03-15T00:04:46;94229.53;;;6.37;56.63
3102;BME280;1561;42.666;23.392;2023-03-15T00:07:13;94230.50;;;6.25;57.03
3102;BME280;1561;42.666;23.392;2023-03-15T00:09:42;94200.47;;;6.21;56.25
3102;BME280;1561;42.666;23.392;2023-03-15T00:12:12;94205.66;;;6.19;55.80
3102;BME280;1561;42.666;23.392;2023-03-15T00:14:39;94202.97;;;6.00;59.48
3102;BME280;1561;42.666;23.392;2023-03-15T00:17:08;94205.03;;;6.06;58.61
3102;BME280;1561;42.666;23.392;2023-03-15T00:19:36;94213.06;;;6.11;58.77
3102;BME280;1561;42.666;23.392;2023-03-15T00:22:04;94215.47;;;6.13;58.58
3102;BME280;1561;42.666;23.392;2023-03-15T00:24:31;94216.13;;;6.26;56.27
3102;BME280;1561;42.666;23.392;2023-03-15T00:27:02;94189.13;;;6.04;57.23
3102;BME280;1561;42.666;23.392;2023-03-15T00:29:32;94221.41;;;5.91;61.32
3102;BME280;1561;42.666;23.392;2023-03-15T00:32:00;94216.88;;;6.06;58.43
3102;BME280;1561;42.666;23.392;2023-03-15T00:34:27;94140.31;;;5.60;61.59
3102;BME280;1561;42.666;23.392;2023-03-15T00:36:53;94218.81;;;6.13;60.61
3102;BME280;1561;42.666;23.392;2023-03-15T00:39:20;94205.34;;;6.33;57.44
3102;BME280;1561;42.666;23.392;2023-03-15T00:41:50;94205.44;;;6.43;56.40
3102;BME280;1561;42.666;23.392;2023-03-15T00:44:23;94175.13;;;6.41;55.34
3102;BME280;1561;42.666;23.392;2023-03-15T00:46:52;94196.06;;;6.64;55.23
3102;BME280;1561;42.666;23.392;2023-03-15T00:49:22;94197.00;;;6.63;55.00
3102;BME280;1561;42.666;23.392;2023-03-15T00:51:53;94179.63;;;6.58;54.67
3102;BME280;1561;42.666;23.392;2023-03-15T00:54:20;94189.72;;;6.28;57.60
3102;BME280;1561;42.666;23.392;2023-03-15T00:56:49;94058.13;;;5.32;56.79
3102;BME280;1561;42.666;23.392;2023-03-15T00:59:16;94195.31;;;6.52;55.50
3102;BME280;1561;42.666;23.392;2023-03-15T01:01:46;94188.22;;;6.46;55.57
3102;BME280;1561;42.666;23.392;2023-03-15T01:04:14;94193.84;;;6.50;55.72
3102;BME280;1561;42.666;23.392;2023-03-15T01:06:41;94186.19;;;6.40;56.32
3102;BME280;1561;42.666;23.392;2023-03-15T01:09:09;94187.22;;;6.38;56.21
3102;BME280;1561;42.666;23.392;2023-03-15T01:11:36;94176.59;;;6.23;56.98
3102;BME280;1561;42.666;23.392;2023-03-15T01:14:05;94156.53;;;6.00;58.22
3102;BME280;1561;42.666;23.392;2023-03-15T01:16:35;94176.44;;;6.25;57.91
3102;BME280;1561;42.666;23.392;2023-03-15T01:19:05;94166.78;;;6.30;57.97
3102;BME280;1561;42.666;23.392;2023-03-15T01:21:33;94142.50;;;6.16;56.43
3102;BME280;1561;42.666;23.392;2023-03-15T01:24:01;94150.63;;;6.31;57.03
3102;BME280;1561;42.666;23.392;2023-03-15T01:26:29;94137.75;;;6.23;57.25
3102;BME280;1561;42.666;23.392;2023-03-15T01:28:57;94149.81;;;6.30;58.37
3102;BME280;1561;42.666;23.392;2023-03-15T01:31:26;94138.31;;;6.06;58.25
3102;BME280;1561;42.666;23.392;2023-03-15T01:33:55;94162.38;;;6.11;58.76
3102;BME280;1561;42.666;23.392;2023-03-15T01:36:24;94164.16;;;6.20;59.12
3102;BME280;1561;42.666;23.392;2023-03-15T01:38:53;94144.94;;;6.18;58.91
3102;BME280;1561;42.666;23.392;2023-03-15T01:41:21;94123.22;;;6.04;58.67
3102;BME280;1561;42.666;23.392;2023-03-15T01:43:53;94148.13;;;6.20;59.00
3102;BME280;1561;42.666;23.392;2023-03-15T01:46:31;94144.38;;;6.35;58.81
3102;BME280;1561;42.666;23.392;2023-03-15T01:49:03;94140.34;;;6.32;59.55
3102;BME280;1561;42.666;23.392;2023-03-15T01:51:41;94036.72;;;5.57;60.99
3102;BME280;1561;42.666;23.392;2023-03-15T01:54:15;94132.31;;;6.07;61.15
3102;BME280;1561;42.666;23.392;2023-03-15T01:56:47;94030.28;;;5.32;60.69
3102;BME280;1561;42.666;23.392;2023-03-15T01:59:20;94132.72;;;5.91;61.39
3102;BME280;1561;42.666;23.392;2023-03-15T02:01:50;94121.22;;;5.87;61.16
3102;BME280;1561;42.666;23.392;2023-03-15T02:04:23;94119.75;;;5.85;61.13
3102;BME280;1561;42.666;23.392;2023-03-15T02:06:57;94126.22;;;5.78;60.81
3102;BME280;1561;42.666;23.392;2023-03-15T02:09:31;94124.03;;;5.84;61.14
3102;BME280;1561;42.666;23.392;2023-03-15T02:12:04;94102.53;;;5.68;62.92
3102;BME280;1561;42.666;23.392;2023-03-15T02:14:32;94107.34;;;5.82;62.19
3102;BME280;1561;42.666;23.392;2023-03-15T02:17:03;93964.31;;;4.82;61.52
3102;BME280;1561;42.666;23.392;2023-03-15T02:19:47;94092.72;;;5.43;63.22
3102;BME280;1561;42.666;23.392;2023-03-15T02:22:27;94097.09;;;5.41;63.77
3102;BME280;1561;42.666;23.392;2023-03-15T02:25:02;94096.66;;;5.36;64.23
3102;BME280;1561;42.666;23.392;2023-03-15T02:27:34;94095.03;;;5.46;64.14
3102;BME280;1561;42.666;23.392;2023-03-15T02:30:04;94089.97;;;5.35;63.39
3102;BME280;1561;42.666;23.392;2023-03-15T02:32:34;94091.53;;;5.26;63.34
3102;BME280;1561;42.666;23.392;2023-03-15T02:35:02;94101.31;;;5.20;64.00
3102;BME280;1561;42.666;23.392;2023-03-15T02:37:30;94086.13;;;5.20;64.59
3102;BME280;1561;42.666;23.392;2023-03-15T02:39:58;94089.78;;;5.27;64.99
3102;BME280;1561;42.666;23.392;2023-03-15T02:42:34;94098.41;;;5.24;64.81
3102;BME280;1561;42.666;23.392;2023-03-15T02:45:02;94104.53;;;5.22;64.10
3102;BME280;1561;42.666;23.392;2023-03-15T02:47:32;94073.66;;;4.85;65.19
3102;BME280;1561;42.666;23.392;2023-03-15T02:50:02;94070.66;;;4.80;66.53
3102;BME280;1561;42.666;23.392;2023-03-15T02:52:32;94090.31;;;4.99;65.45
3102;BME280;1561;42.666;23.392;2023-03-15T02:55:01;94084.66;;;5.06;66.10
3102;BME280;1561;42.666;23.392;2023-03-15T02:57:31;94082.69;;;5.10;65.81
3102;BME280;1561;42.666;23.392;2023-03-15T03:00:01;94086.97;;;4.98;67.52
3102;BME280;1561;42.666;23.392;2023-03-15T03:02:41;93977.53;;;4.21;69.06
3102;BME280;1561;42.666;23.392;2023-03-15T03:05:09;94056.44;;;4.79;69.81
3102;BME280;1561;42.666;23.392;2023-03-15T03:07:37;94069.75;;;4.92;69.85
3102;BME280;1561;42.666;23.392;2023-03-15T03:10:11;94068.41;;;4.77;70.46
3102;BME280;1561;42.666;23.392;2023-03-15T03:12:38;94061.03;;;4.63;71.17
3102;BME280;1561;42.666;23.392;2023-03-15T03:15:09;94062.38;;;4.89;70.50
3102;BME280;1561;42.666;23.392;2023-03-15T03:17:36;94056.75;;;4.86;70.61
3102;BME280;1561;42.666;23.392;2023-03-15T03:20:04;94045.53;;;4.68;71.32
3102;BME280;1561;42.666;23.392;2023-03-15T03:22:34;94052.19;;;4.80;71.79
3102;BME280;1561;42.666;23.392;2023-03-15T03:25:01;94054.72;;;4.80;72.67
3102;BME280;1561;42.666;23.392;2023-03-15T03:30:50;94048.16;;;4.66;73.98
3102;BME280;1561;42.666;23.392;2023-03-15T03:33:18;94041.41;;;4.67;75.28
3102;BME280;1561;42.666;23.392;2023-03-15T03:35:47;94013.84;;;4.53;75.37
3102;BME280;1561;42.666;23.392;2023-03-15T03:38:15;94041.13;;;4.81;74.99
3102;BME280;1561;42.666;23.392;2023-03-15T03:40:42;94036.19;;;4.79;75.37
3102;BME280;1561;42.666;23.392;2023-03-15T03:43:09;94033.88;;;4.87;76.03
3102;BME280;1561;42.666;23.392;2023-03-15T03:45:40;94038.00;;;4.88;75.75
3102;BME280;1561;42.666;23.392;2023-03-15T03:48:08;94003.13;;;4.60;76.29
3102;BME280;1561;42.666;23.392;2023-03-15T03:50:36;94023.31;;;4.71;77.63
3102;BME280;1561;42.666;23.392;2023-03-15T03:53:02;94022.06;;;4.66;79.01
3102;BME280;1561;42.666;23.392;2023-03-15T03:55:30;94027.81;;;4.68;80.09
3102;BME280;1561;42.666;23.392;2023-03-15T03:57:58;94032.88;;;4.57;82.50
3102;BME280;1561;42.666;23.392;2023-03-15T04:00:26;94024.28;;;4.48;84.17
3102;BME280;1561;42.666;23.392;2023-03-15T04:02:54;94023.09;;;4.63;84.20
3102;BME280;1561;42.666;23.392;2023-03-15T04:05:25;94027.94;;;4.77;82.50
3102;BME280;1561;42.666;23.392;2023-03-15T04:07:52;93982.66;;;4.63;79.78
3102;BME280;1561;42.666;23.392;2023-03-15T04:10:19;93966.63;;;4.42;82.48
3102;BME280;1561;42.666;23.392;2023-03-15T04:12:53;94015.13;;;4.79;83.85
3102;BME280;1561;42.666;23.392;2023-03-15T04:15:21;94014.69;;;4.74;86.27
3102;BME280;1561;42.666;23.392;2023-03-15T04:17:50;93995.28;;;4.63;86.02
3102;BME280;1561;42.666;23.392;2023-03-15T04:20:20;94007.38;;;4.60;87.01
3102;BME280;1561;42.666;23.392;2023-03-15T04:22:48;94007.25;;;4.50;88.02
3102;BME280;1561;42.666;23.392;2023-03-15T04:25:16;94000.38;;;4.52;86.40
3102;BME280;1561;42.666;23.392;2023-03-15T04:27:46;94008.41;;;4.68;83.89
3102;BME280;1561;42.666;23.392;2023-03-15T04:30:23;94002.53;;;4.68;84.65
3102;BME280;1561;42.666;23.392;2023-03-15T04:32:52;94000.69;;;4.70;86.75
3102;BME280;1561;42.666;23.392;2023-03-15T04:35:26;93998.47;;;4.76;87.16
3102;BME280;1561;42.666;23.392;2023-03-15T04:37:57;93976.09;;;4.72;87.79
3102;BME280;1561;42.666;23.392;2023-03-15T04:40:29;94003.72;;;4.95;84.80
3102;BME280;1561;42.666;23.392;2023-03-15T04:43:00;93870.97;;;4.16;85.09
3102;BME280;1561;42.666;23.392;2023-03-15T04:45:29;93982.69;;;5.88;83.82
3102;BME280;1561;42.666;23.392;2023-03-15T04:47:58;93989.47;;;5.87;77.38
3102;BME280;1561;42.666;23.392;2023-03-15T04:50:28;94008.75;;;5.58;80.36
3102;BME280;1561;42.666;23.392;2023-03-15T04:52:57;94005.94;;;5.41;82.92
3102;BME280;1561;42.666;23.392;2023-03-15T04:55:29;94016.16;;;5.50;82.58
3102;BME280;1561;42.666;23.392;2023-03-15T04:57:58;94004.75;;;5.24;83.69
3102;BME280;1561;42.666;23.392;2023-03-15T05:00:27;94017.50;;;5.34;83.48
3102;BME280;1561;42.666;23.392;2023-03-15T05:02:54;94002.00;;;5.27;84.20
3102;BME280;1561;42.666;23.392;2023-03-15T05:05:21;94015.03;;;5.43;83.01
3102;BME280;1561;42.666;23.392;2023-03-15T05:07:49;94008.06;;;5.77;78.21
3102;BME280;1561;42.666;23.392;2023-03-15T05:10:21;94019.63;;;5.70;81.00
3102;BME280;1561;42.666;23.392;2023-03-15T05:12:49;94004.59;;;6.68;75.82
3102;BME280;1561;42.666;23.392;2023-03-15T05:15:16;94013.22;;;7.62;72.26
3102;BME280;1561;42.666;23.392;2023-03-15T05:17:47;93994.38;;;9.18;62.94
3102;BME280;1561;42.666;23.392;2023-03-15T05:20:19;93995.03;;;9.03;60.46
3102;BME280;1561;42.666;23.392;2023-03-15T05:22:46;93992.09;;;8.98;60.42
3102;BME280;1561;42.666;23.392;2023-03-15T05:25:14;94003.25;;;8.52;57.23
3102;BME280;1561;42.666;23.392;2023-03-15T05:27:43;93905.88;;;7.41;58.40
3102;BME280;1561;42.666;23.392;2023-03-15T05:30:12;93971.91;;;7.31;60.05
3102;BME280;1561;42.666;23.392;2023-03-15T05:32:39;94001.47;;;7.42;60.58
3102;BME280;1561;42.666;23.392;2023-03-15T05:35:10;93977.94;;;7.02;61.33
3102;BME280;1561;42.666;23.392;2023-03-15T05:37:38;93991.66;;;6.71;62.11
3102;BME280;1561;42.666;23.392;2023-03-15T05:40:08;93986.91;;;6.47;62.62
3102;BME280;1561;42.666;23.392;2023-03-15T05:42:36;93997.06;;;6.47;63.60
3102;BME280;1561;42.666;23.392;2023-03-15T05:45:06;93996.41;;;6.15;64.49
3102;BME280;1561;42.666;23.392;2023-03-15T05:47:38;94004.81;;;6.16;63.97
3102;BME280;1561;42.666;23.392;2023-03-15T05:50:06;94001.22;;;5.88;66.38
3102;BME280;1561;42.666;23.392;2023-03-15T05:52:34;93994.16;;;5.51;69.61
3102;BME280;1561;42.666;23.392;2023-03-15T05:55:01;93990.50;;;5.44;71.33
3102;BME280;1561;42.666;23.392;2023-03-15T05:57:28;93996.81;;;5.49;73.12
3102;BME280;1561;42.666;23.392;2023-03-15T05:59:55;94003.16;;;5.44;74.37
3102;BME280;1561;42.666;23.392;2023-03-15T06:02:24;93971.84;;;5.24;75.17
3102;BME280;1561;42.666;23.392;2023-03-15T06:04:51;94008.97;;;5.76;75.05
3102;BME280;1561;42.666;23.392;2023-03-15T06:07:18;93998.94;;;6.55;71.35
3102;BME280;1561;42.666;23.392;2023-03-15T06:09:45;94000.13;;;6.41;69.40
3102;BME280;1561;42.666;23.392;2023-03-15T06:12:13;94008.44;;;6.62;69.23
3102;BME280;1561;42.666;23.392;2023-03-15T06:14:40;93926.66;;;7.63;64.57
3102;BME280;1561;42.666;23.392;2023-03-15T06:17:07;93983.50;;;7.72;63.27
3102;BME280;1561;42.666;23.392;2023-03-15T06:19:36;93992.22;;;8.15;64.42
3102;BME280;1561;42.666;23.392;2023-03-15T06:22:05;93976.84;;;10.19;57.68
3102;BME280;1561;42.666;23.392;2023-03-15T06:24:33;93968.59;;;11.40;53.22
3102;BME280;1561;42.666;23.392;2023-03-15T06:26:59;93975.31;;;11.97;50.98
3102;BME280;1561;42.666;23.392;2023-03-15T06:29:29;93988.91;;;11.50;50.60
3102;BME280;1561;42.666;23.392;2023-03-15T06:31:56;93991.41;;;10.60;52.73
3102;BME280;1561;42.666;23.392;2023-03-15T06:34:23;93981.69;;;8.91;56.35
3102;BME280;1561;42.666;23.392;2023-03-15T06:36:51;93975.44;;;8.32;60.64
3102;BME280;1561;42.666;23.392;2023-03-15T06:39:18;93983.19;;;10.41;55.83
3102;BME280;1561;42.666;23.392;2023-03-15T06:41:46;93981.13;;;10.94;53.31
3102;BME280;1561;42.666;23.392;2023-03-15T06:44:14;93978.59;;;9.33;56.71
3102;BME280;1561;42.666;23.392;2023-03-15T06:46:41;93978.66;;;8.34;60.60
3102;BME280;1561;42.666;23.392;2023-03-15T06:49:08;93973.41;;;10.28;57.46
3102;BME280;1561;42.666;23.392;2023-03-15T06:51:36;93968.00;;;11.70;52.50
3102;BME280;1561;42.666;23.392;2023-03-15T06:54:05;93974.22;;;13.54;48.77
3102;BME280;1561;42.666;23.392;2023-03-15T06:56:31;93963.81;;;12.94;48.04
3102;BME280;1561;42.666;23.392;2023-03-15T06:59:01;93957.41;;;12.13;49.34
3102;BME280;1561;42.666;23.392;2023-03-15T07:01:29;93968.50;;;10.92;52.04
3102;BME280;1561;42.666;23.392;2023-03-15T07:03:56;93951.59;;;10.08;53.36
3102;BME280;1561;42.666;23.392;2023-03-15T07:06:28;93948.75;;;11.10;51.41
3102;BME280;1561;42.666;23.392;2023-03-15T07:08:54;93964.47;;;11.55;50.12
3102;BME280;1561;42.666;23.392;2023-03-15T07:11:23;93962.66;;;13.05;46.89
3102;BME280;1561;42.666;23.392;2023-03-15T07:13:50;93958.56;;;13.18;43.79
3102;BME280;1561;42.666;23.392;2023-03-15T07:16:17;93946.53;;;12.03;45.93
3102;BME280;1561;42.666;23.392;2023-03-15T07:18:44;93948.25;;;12.65;45.48
3102;BME280;1561;42.666;23.392;2023-03-15T07:21:12;93936.91;;;12.90;45.60
3102;BME280;1561;42.666;23.392;2023-03-15T07:23:39;93964.00;;;14.20;44.55
3102;BME280;1561;42.666;23.392;2023-03-15T07:26:07;93952.66;;;15.58;42.72
3102;BME280;1561;42.666;23.392;2023-03-15T07:28:35;93952.00;;;14.49;43.00
3102;BME280;1561;42.666;23.392;2023-03-15T07:31:04;93950.22;;;13.84;44.25
3102;BME280;1561;42.666;23.392;2023-03-15T07:33:32;93939.38;;;11.59;48.33
3102;BME280;1561;42.666;23.392;2023-03-15T07:36:00;93945.00;;;10.31;52.12
3102;BME280;1561;42.666;23.392;2023-03-15T07:38:29;93932.44;;;10.95;51.75
3102;BME280;1561;42.666;23.392;2023-03-15T07:40:56;93948.53;;;14.71;44.90
3102;BME280;1561;42.666;23.392;2023-03-15T07:43:23;93955.34;;;13.24;45.89
3102;BME280;1561;42.666;23.392;2023-03-15T07:45:51;93942.72;;;14.98;43.59
3102;BME280;1561;42.666;23.392;2023-03-15T07:48:18;93953.41;;;16.28;41.36
3102;BME280;1561;42.666;23.392;2023-03-15T07:50:46;93961.63;;;15.26;41.62
3102;BME280;1561;42.666;23.392;2023-03-15T07:53:12;93955.63;;;14.55;43.05
3102;BME280;1561;42.666;23.392;2023-03-15T07:55:40;93943.72;;;15.54;41.53
3102;BME280;1561;42.666;23.392;2023-03-15T07:58:07;93940.41;;;15.60;40.80
3102;BME280;1561;42.666;23.392;2023-03-15T08:00:35;93945.44;;;14.61;42.50
3102;BME280;1561;42.666;23.392;2023-03-15T08:03:05;93933.16;;;16.87;38.91
3102;BME280;1561;42.666;23.392;2023-03-15T08:05:35;93912.94;;;17.03;39.25
3102;BME280;1561;42.666;23.392;2023-03-15T08:08:02;93924.97;;;15.87;39.90
3102;BME280;1561;42.666;23.392;2023-03-15T08:10:29;93942.00;;;15.40;40.31
3102;BME280;1561;42.666;23.392;2023-03-15T08:12:56;93935.63;;;15.78;40.90
3102;BME280;1561;42.666;23.392;2023-03-15T08:15:23;93925.66;;;15.96;39.25
3102;BME280;1561;42.666;23.392;2023-03-15T08:17:49;93927.06;;;14.06;42.69
3102;BME280;1561;42.666;23.392;2023-03-15T08:20:18;93911.59;;;14.93;41.45
3102;BME280;1561;42.666;23.392;2023-03-15T08:22:47;93898.78;;;16.39;39.47
3102;BME280;1561;42.666;23.392;2023-03-15T08:25:16;93887.88;;;17.90;37.00
3102;BME280;1561;42.666;23.392;2023-03-15T08:27:43;93891.69;;;16.13;38.82
3102;BME280;1561;42.666;23.392;2023-03-15T08:30:12;93824.66;;;15.24;38.80
3102;BME280;1561;42.666;23.392;2023-03-15T08:32:41;93909.44;;;17.24;37.98
3102;BME280;1561;42.666;23.392;2023-03-15T08:35:09;93904.09;;;16.03;38.17
3102;BME280;1561;42.666;23.392;2023-03-15T08:37:41;93919.41;;;14.85;40.10
3102;BME280;1561;42.666;23.392;2023-03-15T08:40:13;93913.72;;;16.91;37.42
3102;BME280;1561;42.666;23.392;2023-03-15T08:42:41;93909.91;;;17.53;36.30
3102;BME280;1561;42.666;23.392;2023-03-15T08:45:09;93902.91;;;18.58;34.74
3102;BME280;1561;42.666;23.392;2023-03-15T08:47:41;93911.66;;;18.31;34.80
3102;BME280;1561;42.666;23.392;2023-03-15T08:50:11;93896.31;;;16.24;37.74
3102;BME280;1561;42.666;23.392;2023-03-15T08:52:40;93905.25;;;15.46;38.74
3102;BME280;1561;42.666;23.392;2023-03-15T08:55:13;93891.84;;;14.94;39.14
3102;BME280;1561;42.666;23.392;2023-03-15T08:57:41;93913.78;;;15.32;38.95
3102;BME280;1561;42.666;23.392;2023-03-15T09:00:11;93921.63;;;13.50;42.04
3102;BME280;1561;42.666;23.392;2023-03-15T09:02:42;93917.84;;;13.23;43.02
3102;BME280;1561;42.666;23.392;2023-03-15T09:05:09;93919.88;;;14.89;40.96
3102;BME280;1561;42.666;23.392;2023-03-15T09:07:38;93901.53;;;15.76;38.86
3102;BME280;1561;42.666;23.392;2023-03-15T09:10:09;93908.72;;;15.38;39.66
3102;BME280;1561;42.666;23.392;2023-03-15T09:12:37;93913.59;;;13.90;41.68
3102;BME280;1561;42.666;23.392;2023-03-15T09:15:06;93909.00;;;14.72;40.65
3102;BME280;1561;42.666;23.392;2023-03-15T09:17:34;93922.06;;;13.39;42.29
3102;BME280;1561;42.666;23.392;2023-03-15T09:20:03;93927.31;;;13.60;42.54
3102;BME280;1561;42.666;23.392;2023-03-15T09:22:33;93917.53;;;13.63;42.28
3102;BME280;1561;42.666;23.392;2023-03-15T09:25:00;93929.63;;;13.55;43.09
3102;BME280;1561;42.666;23.392;2023-03-15T09:27:30;93878.41;;;12.94;43.13
3102;BME280;1561;42.666;23.392;2023-03-15T09:29:57;93911.72;;;13.47;43.15
3102;BME280;1561;42.666;23.392;2023-03-15T09:32:25;93913.22;;;12.88;44.55
3102;BME280;1561;42.666;23.392;2023-03-15T09:34:55;93915.03;;;12.80;44.56
3102;BME280;1561;42.666;23.392;2023-03-15T09:37:25;93904.78;;;13.33;43.73
3102;BME280;1561;42.666;23.392;2023-03-15T09:39:55;93905.38;;;13.57;43.34
3102;BME280;1561;42.666;23.392;2023-03-15T09:42:29;93842.53;;;14.05;42.15
3102;BME280;1561;42.666;23.392;2023-03-15T09:45:21;93893.59;;;13.85;42.41
3102;BME280;1561;42.666;23.392;2023-03-15T09:47:59;93885.66;;;13.58;42.77
3102;BME280;1561;42.666;23.392;2023-03-15T09:50:36;93889.72;;;13.52;43.24
3102;BME280;1561;42.666;23.392;2023-03-15T09:53:12;93875.09;;;14.48;41.69
3102;BME280;1561;42.666;23.392;2023-03-15T09:55:43;93892.47;;;14.02;42.12
3102;BME280;1561;42.666;23.392;2023-03-15T09:58:23;93883.06;;;14.09;42.21
3102;BME280;1561;42.666;23.392;2023-03-15T10:01:01;93752.09;;;12.48;43.54
3102;BME280;1561;42.666;23.392;2023-03-15T10:03:33;93865.03;;;12.61;44.47
3102;BME280;1561;42.666;23.392;2023-03-15T10:06:09;93905.63;;;13.03;44.38
3102;BME280;1561;42.666;23.392;2023-03-15T10:08:39;93892.38;;;12.91;44.20
3102;BME280;1561;42.666;23.392;2023-03-15T10:11:14;93888.41;;;12.58;45.05
3102;BME280;1561;42.666;23.392;2023-03-15T10:13:57;93881.03;;;13.16;44.24
3102;BME280;1561;42.666;23.392;2023-03-15T10:16:38;93886.34;;;12.84;44.61
3102;BME280;1561;42.666;23.392;2023-03-15T10:19:14;93888.50;;;13.26;44.11
3102;BME280;1561;42.666;23.392;2023-03-15T10:21:51;93876.97;;;14.39;42.74
3102;BME280;1561;42.666;23.392;2023-03-15T10:24:34;93875.94;;;14.69;41.53
3102;BME280;1561;42.666;23.392;2023-03-15T10:27:14;93816.03;;;14.19;41.54
3102;BME280;1561;42.666;23.392;2023-03-15T10:29:59;93880.50;;;13.80;42.94
3102;BME280;1561;42.666;23.392;2023-03-15T10:32:36;93868.94;;;14.63;41.42
3102;BME280;1561;42.666;23.392;2023-03-15T10:35:13;93869.34;;;14.31;42.01
3102;BME280;1561;42.666;23.392;2023-03-15T10:37:44;93877.06;;;13.51;43.00
3102;BME280;1561;42.666;23.392;2023-03-15T10:40:14;93884.22;;;12.88;44.11
3102;BME280;1561;42.666;23.392;2023-03-15T10:42:42;93870.16;;;12.84;44.81
3102;BME280;1561;42.666;23.392;2023-03-15T10:45:19;93889.03;;;12.60;44.98
3102;BME280;1561;42.666;23.392;2023-03-15T10:47:49;93876.94;;;12.77;44.90
3102;BME280;1561;42.666;23.392;2023-03-15T10:50:23;93862.44;;;12.92;44.27
3102;BME280;1561;42.666;23.392;2023-03-15T10:52:55;93779.84;;;12.37;44.26
3102;BME280;1561;42.666;23.392;2023-03-15T10:55:29;93873.75;;;13.05;44.36
3102;BME280;1561;42.666;23.392;2023-03-15T10:58:12;93874.25;;;13.01;44.75
3102;BME280;1561;42.666;23.392;2023-03-15T11:00:47;93873.84;;;14.00;42.89
3102;BME280;1561;42.666;23.392;2023-03-15T11:03:22;93870.38;;;13.93;42.32
3102;BME280;1561;42.666;23.392;2023-03-15T11:05:52;93874.50;;;14.02;42.73
3102;BME280;1561;42.666;23.392;2023-03-15T11:08:23;93773.50;;;13.52;42.74
3102;BME280;1561;42.666;23.392;2023-03-15T11:10:58;93845.63;;;13.71;42.86
3102;BME280;1561;42.666;23.392;2023-03-15T11:13:29;93866.94;;;13.35;43.72
3102;BME280;1561;42.666;23.392;2023-03-15T11:16:01;93864.16;;;13.22;43.86
3102;BME280;1561;42.666;23.392;2023-03-15T11:18:33;93850.31;;;13.08;44.10
3102;BME280;1561;42.666;23.392;2023-03-15T11:21:06;93847.09;;;13.29;43.95
3102;BME280;1561;42.666;23.392;2023-03-15T11:23:39;93845.94;;;13.17;44.46
3102;BME280;1561;42.666;23.392;2023-03-15T11:26:14;93867.56;;;12.92;44.77
3102;BME280;1561;42.666;23.392;2023-03-15T11:28:46;93868.34;;;13.89;43.50
3102;BME280;1561;42.666;23.392;2023-03-15T11:31:16;93866.19;;;13.49;43.75
3102;BME280;1561;42.666;23.392;2023-03-15T11:33:55;93859.56;;;14.20;42.21
3102;BME280;1561;42.666;23.392;2023-03-15T11:36:29;93851.00;;;14.05;42.56
3102;BME280;1561;42.666;23.392;2023-03-15T11:38:59;93844.69;;;15.08;41.43
3102;BME280;1561;42.666;23.392;2023-03-15T11:41:34;93830.91;;;15.15;41.17
3102;BME280;1561;42.666;23.392;2023-03-15T11:44:10;93844.53;;;14.09;42.75
3102;BME280;1561;42.666;23.392;2023-03-15T11:46:45;93846.72;;;13.69;43.64
3102;BME280;1561;42.666;23.392;2023-03-15T11:49:28;93735.81;;;12.78;44.26
3102;BME280;1561;42.666;23.392;2023-03-15T11:52:11;93839.66;;;12.74;45.25
3102;BME280;1561;42.666;23.392;2023-03-15T11:54:43;93842.28;;;13.34;44.47
3102;BME280;1561;42.666;23.392;2023-03-15T11:57:35;93840.59;;;13.41;43.90
3102;BME280;1561;42.666;23.392;2023-03-15T12:00:25;93833.34;;;14.60;42.45
3102;BME280;1561;42.666;23.392;2023-03-15T12:03:29;93836.69;;;14.40;42.91
3102;BME280;1561;42.666;23.392;2023-03-15T12:06:10;93839.47;;;13.58;43.93
3102;BME280;1561;42.666;23.392;2023-03-15T12:08:47;93830.66;;;13.01;45.15
3102;BME280;1561;42.666;23.392;2023-03-15T12:11:41;93823.13;;;13.73;44.05
3102;BME280;1561;42.666;23.392;2023-03-15T12:14:28;93817.69;;;13.39;44.95
3102;BME280;1561;42.666;23.392;2023-03-15T12:20:26;93814.03;;;13.19;44.85
3102;BME280;1561;42.666;23.392;2023-03-15T12:23:21;93814.00;;;13.71;44.21
3102;BME280;1561;42.666;23.392;2023-03-15T12:25:56;93821.19;;;13.61;44.21
3102;BME280;1561;42.666;23.392;2023-03-15T12:28:29;93818.69;;;13.53;44.77
3102;BME280;1561;42.666;23.392;2023-03-15T12:30:59;93805.25;;;13.80;44.37
3102;BME280;1561;42.666;23.392;2023-03-15T12:33:45;93803.56;;;13.72;44.13
3102;BME280;1561;42.666;23.392;2023-03-15T12:36:28;93785.06;;;13.91;43.78
3102;BME280;1561;42.666;23.392;2023-03-15T12:39:20;93807.19;;;13.92;43.61
3102;BME280;1561;42.666;23.392;2023-03-15T12:41:50;93803.59;;;13.87;44.05
3102;BME280;1561;42.666;23.392;2023-03-15T12:44:23;93813.47;;;13.61;44.77
3102;BME280;1561;42.666;23.392;2023-03-15T12:46:59;93795.13;;;13.35;44.74
3102;BME280;1561;42.666;23.392;2023-03-15T12:49:38;93795.13;;;12.98;45.57
3102;BME280;1561;42.666;23.392;2023-03-15T12:52:32;93811.63;;;13.18;45.16
3102;BME280;1561;42.666;23.392;2023-03-15T12:55:10;93805.03;;;13.23;44.79
3102;BME280;1561;42.666;23.392;2023-03-15T12:57:49;93803.78;;;12.97;45.44
3102;BME280;1561;42.666;23.392;2023-03-15T13:00:21;93806.50;;;13.18;45.17
3102;BME280;1561;42.666;23.392;2023-03-15T13:02:53;93797.50;;;12.99;45.46
3102;BME280;1561;42.666;23.392;2023-03-15T13:05:32;93790.50;;;12.93;45.55
3102;BME280;1561;42.666;23.392;2023-03-15T13:08:08;93797.94;;;13.25;45.78
3102;BME280;1561;42.666;23.392;2023-03-15T13:10:50;93792.75;;;13.48;45.23
3102;BME280;1561;42.666;23.392;2023-03-15T13:13:32;93676.91;;;12.41;45.03
3102;BME280;1561;42.666;23.392;2023-03-15T13:16:14;93800.56;;;13.17;45.30
3102;BME280;1561;42.666;23.392;2023-03-15T13:18:48;93796.91;;;13.49;44.70
3102;BME280;1561;42.666;23.392;2023-03-15T13:21:23;93790.69;;;13.29;45.00
3102;BME280;1561;42.666;23.392;2023-03-15T13:23:55;93790.63;;;13.37;44.99
3102;BME280;1561;42.666;23.392;2023-03-15T13:26:52;93798.09;;;13.24;45.18
3102;BME280;1561;42.666;23.392;2023-03-15T13:29:26;93808.84;;;13.05;45.67
3102;BME280;1561;42.666;23.392;2023-03-15T13:32:07;93799.09;;;13.23;45.43
3102;BME280;1561;42.666;23.392;2023-03-15T13:34:49;93798.97;;;13.68;44.75
3102;BME280;1561;42.666;23.392;2023-03-15T13:37:20;93785.66;;;13.21;45.05
3102;BME280;1561;42.666;23.392;2023-03-15T13:40:12;93803.75;;;13.71;46.35
3102;BME280;1561;42.666;23.392;2023-03-15T13:42:43;93798.25;;;13.59;49.13
3102;BME280;1561;42.666;23.392;2023-03-15T13:45:14;93799.31;;;13.65;49.59